Terminal Aerodrome Forecast
Issued by NWS

Home | Current Version | Previous Version | Text Only | Print | Product List | Glossary On
Versions: 1 2 3 4 5 6 7 8 9 10 11 12 13 14 15 16 17 18 19 20 21 22
000
FTUS43 KICT 291738
TAFRSL
TAF
KRSL 291738Z 2918/3018 VRB05KT P6SM SCT025
      TEMPO 2918/2922 BKN025
     FM300100 09006KT P6SM FEW035 SCT200
     FM300900 11005KT P6SM VCTS SCT070CB BKN100
     FM301500 12011KT P6SM FEW030 SCT120=

USA.gov is the U.S. government's official web portal to all federal, state and local government web resources and services.